sensor_id;sensor_type;location;lat;lon;timestamp;P1;durP1;ratioP1;P2;durP2;ratioP2
48963;SDS011;34776;48.180;16.420;2022-09-28T00:02:02;1.25;;;0.88;;
48963;SDS011;34776;48.180;16.420;2022-09-28T00:04:29;0.90;;;0.80;;
48963;SDS011;34776;48.180;16.420;2022-09-28T00:06:54;2.28;;;1.05;;
48963;SDS011;34776;48.180;16.420;2022-09-28T00:09:20;0.70;;;0.70;;
48963;SDS011;34776;48.180;16.420;2022-09-28T00:11:45;5.18;;;1.02;;
48963;SDS011;34776;48.180;16.420;2022-09-28T00:14:11;0.63;;;0.63;;
48963;SDS011;34776;48.180;16.420;2022-09-28T00:16:38;1.05;;;0.93;;
48963;SDS011;34776;48.180;16.420;2022-09-28T00:19:07;1.08;;;0.98;;
48963;SDS011;34776;48.180;16.420;2022-09-28T00:21:35;0.88;;;0.80;;
48963;SDS011;34776;48.180;16.420;2022-09-28T00:24:03;1.00;;;0.90;;
48963;SDS011;34776;48.180;16.420;2022-09-28T00:26:52;0.90;;;0.90;;
48963;SDS011;34776;48.180;16.420;2022-09-28T00:29:23;0.98;;;0.90;;
48963;SDS011;34776;48.180;16.420;2022-09-28T00:31:53;2.13;;;0.95;;
48963;SDS011;34776;48.180;16.420;2022-09-28T00:34:30;0.70;;;0.70;;
48963;SDS011;34776;48.180;16.420;2022-09-28T00:36:59;1.02;;;0.70;;
48963;SDS011;34776;48.180;16.420;2022-09-28T00:39:26;1.10;;;0.90;;
48963;SDS011;34776;48.180;16.420;2022-09-28T00:41:51;1.42;;;0.88;;
48963;SDS011;34776;48.180;16.420;2022-09-28T00:52:19;2.08;;;0.98;;
48963;SDS011;34776;48.180;16.420;2022-09-28T00:54:52;0.88;;;0.80;;
48963;SDS011;34776;48.180;16.420;2022-09-28T00:57:20;0.90;;;0.65;;
48963;SDS011;34776;48.180;16.420;2022-09-28T00:59:46;0.70;;;0.70;;
48963;SDS011;34776;48.180;16.420;2022-09-28T01:02:13;1.15;;;1.02;;
48963;SDS011;34776;48.180;16.420;2022-09-28T01:04:39;1.80;;;1.05;;
48963;SDS011;34776;48.180;16.420;2022-09-28T01:07:04;1.45;;;0.80;;
48963;SDS011;34776;48.180;16.420;2022-09-28T01:09:32;0.70;;;0.70;;
48963;SDS011;34776;48.180;16.420;2022-09-28T01:12:02;0.90;;;0.73;;
48963;SDS011;34776;48.180;16.420;2022-09-28T01:14:27;2.55;;;0.90;;
48963;SDS011;34776;48.180;16.420;2022-09-28T01:17:02;0.80;;;0.80;;
48963;SDS011;34776;48.180;16.420;2022-09-28T01:19:46;1.20;;;1.00;;
48963;SDS011;34776;48.180;16.420;2022-09-28T01:27:50;0.60;;;0.60;;
48963;SDS011;34776;48.180;16.420;2022-09-28T01:30:19;1.05;;;0.80;;
48963;SDS011;34776;48.180;16.420;2022-09-28T01:32:48;1.27;;;0.80;;
48963;SDS011;34776;48.180;16.420;2022-09-28T01:38:01;1.58;;;0.80;;
48963;SDS011;34776;48.180;16.420;2022-09-28T01:40:30;0.90;;;0.80;;
48963;SDS011;34776;48.180;16.420;2022-09-28T01:43:16;1.42;;;0.80;;
48963;SDS011;34776;48.180;16.420;2022-09-28T01:45:47;0.50;;;0.50;;
48963;SDS011;34776;48.180;16.420;2022-09-28T01:48:22;2.53;;;0.90;;
48963;SDS011;34776;48.180;16.420;2022-09-28T01:50:53;1.42;;;0.70;;
48963;SDS011;34776;48.180;16.420;2022-09-28T01:53:36;1.05;;;0.60;;
48963;SDS011;34776;48.180;16.420;2022-09-28T01:56:08;0.77;;;0.60;;
48963;SDS011;34776;48.180;16.420;2022-09-28T02:01:28;0.70;;;0.70;;
48963;SDS011;34776;48.180;16.420;2022-09-28T02:04:13;0.90;;;0.70;;
48963;SDS011;34776;48.180;16.420;2022-09-28T02:09:43;1.00;;;0.63;;
48963;SDS011;34776;48.180;16.420;2022-09-28T02:12:13;0.65;;;0.65;;
48963;SDS011;34776;48.180;16.420;2022-09-28T02:14:44;0.70;;;0.70;;
48963;SDS011;34776;48.180;16.420;2022-09-28T02:17:13;0.60;;;0.60;;
48963;SDS011;34776;48.180;16.420;2022-09-28T02:19:40;0.50;;;0.50;;
48963;SDS011;34776;48.180;16.420;2022-09-28T02:24:58;2.47;;;1.00;;
48963;SDS011;34776;48.180;16.420;2022-09-28T02:27:38;0.80;;;0.80;;
48963;SDS011;34776;48.180;16.420;2022-09-28T02:30:09;1.00;;;0.90;;
48963;SDS011;34776;48.180;16.420;2022-09-28T02:32:35;0.88;;;0.85;;
48963;SDS011;34776;48.180;16.420;2022-09-28T02:35:10;1.08;;;0.80;;
48963;SDS011;34776;48.180;16.420;2022-09-28T02:37:38;0.70;;;0.70;;
48963;SDS011;34776;48.180;16.420;2022-09-28T02:40:14;1.55;;;0.80;;
48963;SDS011;34776;48.180;16.420;2022-09-28T02:42:51;0.88;;;0.88;;
48963;SDS011;34776;48.180;16.420;2022-09-28T02:47:59;0.73;;;0.73;;
48963;SDS011;34776;48.180;16.420;2022-09-28T02:50:49;0.80;;;0.70;;
48963;SDS011;34776;48.180;16.420;2022-09-28T03:04:53;2.85;;;1.27;;
48963;SDS011;34776;48.180;16.420;2022-09-28T03:07:35;1.50;;;1.10;;
48963;SDS011;34776;48.180;16.420;2022-09-28T03:10:07;1.50;;;0.85;;
48963;SDS011;34776;48.180;16.420;2022-09-28T03:12:33;1.35;;;0.77;;
48963;SDS011;34776;48.180;16.420;2022-09-28T03:15:04;0.80;;;0.80;;
48963;SDS011;34776;48.180;16.420;2022-09-28T03:17:34;1.35;;;0.90;;
48963;SDS011;34776;48.180;16.420;2022-09-28T03:20:00;0.93;;;0.80;;
48963;SDS011;34776;48.180;16.420;2022-09-28T03:22:26;0.80;;;0.80;;
48963;SDS011;34776;48.180;16.420;2022-09-28T03:24:51;1.15;;;0.80;;
48963;SDS011;34776;48.180;16.420;2022-09-28T03:27:17;0.80;;;0.60;;
48963;SDS011;34776;48.180;16.420;2022-09-28T03:29:42;0.85;;;0.80;;
48963;SDS011;34776;48.180;16.420;2022-09-28T03:32:08;1.25;;;0.98;;
48963;SDS011;34776;48.180;16.420;2022-09-28T03:34:33;0.70;;;0.70;;
48963;SDS011;34776;48.180;16.420;2022-09-28T03:36:59;1.13;;;0.82;;
48963;SDS011;34776;48.180;16.420;2022-09-28T03:39:25;2.40;;;0.75;;
48963;SDS011;34776;48.180;16.420;2022-09-28T03:41:50;2.13;;;0.80;;
48963;SDS011;34776;48.180;16.420;2022-09-28T03:44:16;0.70;;;0.70;;
48963;SDS011;34776;48.180;16.420;2022-09-28T03:46:41;0.85;;;0.73;;
48963;SDS011;34776;48.180;16.420;2022-09-28T03:49:07;1.02;;;0.93;;
48963;SDS011;34776;48.180;16.420;2022-09-28T03:51:33;2.65;;;0.93;;
48963;SDS011;34776;48.180;16.420;2022-09-28T03:53:58;2.03;;;0.93;;
48963;SDS011;34776;48.180;16.420;2022-09-28T03:56:24;0.98;;;0.90;;
48963;SDS011;34776;48.180;16.420;2022-09-28T03:58:50;1.13;;;1.02;;
48963;SDS011;34776;48.180;16.420;2022-09-28T04:01:16;2.22;;;0.95;;
48963;SDS011;34776;48.180;16.420;2022-09-28T04:03:41;1.27;;;0.80;;
48963;SDS011;34776;48.180;16.420;2022-09-28T04:06:07;1.00;;;0.90;;
48963;SDS011;34776;48.180;16.420;2022-09-28T04:08:32;1.60;;;0.90;;
48963;SDS011;34776;48.180;16.420;2022-09-28T04:10:58;2.90;;;0.70;;
48963;SDS011;34776;48.180;16.420;2022-09-28T04:13:25;0.80;;;0.77;;
48963;SDS011;34776;48.180;16.420;2022-09-28T04:15:52;1.48;;;0.80;;
48963;SDS011;34776;48.180;16.420;2022-09-28T04:18:21;1.10;;;1.00;;
48963;SDS011;34776;48.180;16.420;2022-09-28T04:20:56;1.33;;;0.88;;
48963;SDS011;34776;48.180;16.420;2022-09-28T04:23:23;1.25;;;1.15;;
48963;SDS011;34776;48.180;16.420;2022-09-28T04:25:52;2.53;;;1.52;;
48963;SDS011;34776;48.180;16.420;2022-09-28T04:28:17;1.48;;;1.20;;
48963;SDS011;34776;48.180;16.420;2022-09-28T04:31:01;2.53;;;1.10;;
48963;SDS011;34776;48.180;16.420;2022-09-28T04:33:27;1.45;;;1.08;;
48963;SDS011;34776;48.180;16.420;2022-09-28T04:35:52;3.03;;;1.75;;
48963;SDS011;34776;48.180;16.420;2022-09-28T04:38:17;1.63;;;1.10;;
48963;SDS011;34776;48.180;16.420;2022-09-28T04:40:43;4.43;;;1.40;;
48963;SDS011;34776;48.180;16.420;2022-09-28T04:43:08;1.00;;;0.90;;
48963;SDS011;34776;48.180;16.420;2022-09-28T04:45:33;2.60;;;1.35;;
48963;SDS011;34776;48.180;16.420;2022-09-28T04:47:59;4.82;;;1.10;;
48963;SDS011;34776;48.180;16.420;2022-09-28T04:50:24;2.42;;;1.27;;
48963;SDS011;34776;48.180;16.420;2022-09-28T04:52:49;2.33;;;1.48;;
48963;SDS011;34776;48.180;16.420;2022-09-28T04:55:15;1.77;;;1.45;;
48963;SDS011;34776;48.180;16.420;2022-09-28T04:57:40;2.13;;;1.38;;
48963;SDS011;34776;48.180;16.420;2022-09-28T05:00:06;2.75;;;2.40;;
48963;SDS011;34776;48.180;16.420;2022-09-28T05:02:33;2.17;;;1.77;;
48963;SDS011;34776;48.180;16.420;2022-09-28T05:04:58;1.60;;;1.42;;
48963;SDS011;34776;48.180;16.420;2022-09-28T05:07:25;5.57;;;4.13;;
48963;SDS011;34776;48.180;16.420;2022-09-28T05:09:51;3.65;;;1.73;;
48963;SDS011;34776;48.180;16.420;2022-09-28T05:12:16;1.85;;;1.40;;
48963;SDS011;34776;48.180;16.420;2022-09-28T05:14:42;2.72;;;1.52;;
48963;SDS011;34776;48.180;16.420;2022-09-28T05:17:08;1.48;;;1.30;;
48963;SDS011;34776;48.180;16.420;2022-09-28T05:19:33;1.30;;;1.20;;
48963;SDS011;34776;48.180;16.420;2022-09-28T05:21:59;5.13;;;1.60;;
48963;SDS011;34776;48.180;16.420;2022-09-28T05:24:28;5.55;;;1.83;;
48963;SDS011;34776;48.180;16.420;2022-09-28T05:26:54;2.20;;;1.60;;
48963;SDS011;34776;48.180;16.420;2022-09-28T05:29:19;3.80;;;1.80;;
48963;SDS011;34776;48.180;16.420;2022-09-28T05:31:45;2.55;;;1.48;;
48963;SDS011;34776;48.180;16.420;2022-09-28T05:34:10;2.25;;;1.40;;
48963;SDS011;34776;48.180;16.420;2022-09-28T05:36:36;5.97;;;1.45;;
48963;SDS011;34776;48.180;16.420;2022-09-28T05:39:03;10.75;;;1.60;;
48963;SDS011;34776;48.180;16.420;2022-09-28T05:41:28;2.90;;;2.10;;
48963;SDS011;34776;48.180;16.420;2022-09-28T05:43:54;2.15;;;1.77;;
48963;SDS011;34776;48.180;16.420;2022-09-28T05:46:20;2.50;;;1.50;;
48963;SDS011;34776;48.180;16.420;2022-09-28T05:48:46;2.95;;;1.83;;
48963;SDS011;34776;48.180;16.420;2022-09-28T05:51:11;4.70;;;1.77;;
48963;SDS011;34776;48.180;16.420;2022-09-28T05:53:36;4.72;;;1.90;;
48963;SDS011;34776;48.180;16.420;2022-09-28T05:56:02;2.85;;;1.90;;
48963;SDS011;34776;48.180;16.420;2022-09-28T05:58:27;3.35;;;1.90;;
48963;SDS011;34776;48.180;16.420;2022-09-28T06:00:54;2.13;;;1.60;;
48963;SDS011;34776;48.180;16.420;2022-09-28T06:03:20;7.40;;;2.00;;
48963;SDS011;34776;48.180;16.420;2022-09-28T06:05:45;2.65;;;1.80;;
48963;SDS011;34776;48.180;16.420;2022-09-28T06:08:11;4.55;;;1.95;;
48963;SDS011;34776;48.180;16.420;2022-09-28T06:10:37;8.68;;;2.10;;
48963;SDS011;34776;48.180;16.420;2022-09-28T06:13:02;3.65;;;1.90;;
48963;SDS011;34776;48.180;16.420;2022-09-28T06:15:30;4.35;;;3.10;;
48963;SDS011;34776;48.180;16.420;2022-09-28T06:17:58;2.55;;;2.13;;
48963;SDS011;34776;48.180;16.420;2022-09-28T06:20:28;3.15;;;1.90;;
48963;SDS011;34776;48.180;16.420;2022-09-28T06:22:56;5.30;;;2.05;;
48963;SDS011;34776;48.180;16.420;2022-09-28T06:25:22;3.05;;;2.05;;
48963;SDS011;34776;48.180;16.420;2022-09-28T06:27:58;7.43;;;2.00;;
48963;SDS011;34776;48.180;16.420;2022-09-28T06:30:25;2.78;;;1.80;;
48963;SDS011;34776;48.180;16.420;2022-09-28T06:32:55;5.05;;;1.80;;
48963;SDS011;34776;48.180;16.420;2022-09-28T06:35:22;3.42;;;2.05;;
48963;SDS011;34776;48.180;16.420;2022-09-28T06:37:49;2.13;;;1.70;;
48963;SDS011;34776;48.180;16.420;2022-09-28T06:40:15;5.10;;;2.00;;
48963;SDS011;34776;48.180;16.420;2022-09-28T06:42:41;3.75;;;2.30;;
48963;SDS011;34776;48.180;16.420;2022-09-28T06:45:06;2.22;;;1.80;;
48963;SDS011;34776;48.180;16.420;2022-09-28T06:47:32;2.30;;;1.80;;
48963;SDS011;34776;48.180;16.420;2022-09-28T06:49:58;2.80;;;1.67;;
48963;SDS011;34776;48.180;16.420;2022-09-28T06:52:24;1.92;;;1.58;;
48963;SDS011;34776;48.180;16.420;2022-09-28T06:54:50;2.58;;;1.40;;
48963;SDS011;34776;48.180;16.420;2022-09-28T06:57:15;3.47;;;1.60;;
48963;SDS011;34776;48.180;16.420;2022-09-28T06:59:41;1.77;;;1.60;;
48963;SDS011;34776;48.180;16.420;2022-09-28T07:02:09;2.83;;;1.35;;
48963;SDS011;34776;48.180;16.420;2022-09-28T07:04:38;2.40;;;1.70;;
48963;SDS011;34776;48.180;16.420;2022-09-28T07:07:06;4.10;;;1.75;;
48963;SDS011;34776;48.180;16.420;2022-09-28T07:09:35;2.08;;;1.60;;
48963;SDS011;34776;48.180;16.420;2022-09-28T07:12:01;5.93;;;2.45;;
48963;SDS011;34776;48.180;16.420;2022-09-28T07:14:28;5.53;;;2.03;;
48963;SDS011;34776;48.180;16.420;2022-09-28T07:16:56;3.20;;;1.83;;
48963;SDS011;34776;48.180;16.420;2022-09-28T07:19:22;2.97;;;2.03;;
48963;SDS011;34776;48.180;16.420;2022-09-28T07:21:47;6.40;;;1.95;;
48963;SDS011;34776;48.180;16.420;2022-09-28T07:24:12;4.38;;;2.15;;
48963;SDS011;34776;48.180;16.420;2022-09-28T07:26:39;2.30;;;1.83;;
48963;SDS011;34776;48.180;16.420;2022-09-28T07:29:05;2.35;;;1.98;;
48963;SDS011;34776;48.180;16.420;2022-09-28T07:31:30;8.52;;;1.70;;
48963;SDS011;34776;48.180;16.420;2022-09-28T07:33:57;3.92;;;2.20;;
48963;SDS011;34776;48.180;16.420;2022-09-28T07:36:23;4.78;;;2.72;;
48963;SDS011;34776;48.180;16.420;2022-09-28T07:38:48;3.65;;;1.92;;
48963;SDS011;34776;48.180;16.420;2022-09-28T07:41:14;3.13;;;1.80;;
48963;SDS011;34776;48.180;16.420;2022-09-28T07:43:45;4.50;;;1.63;;
48963;SDS011;34776;48.180;16.420;2022-09-28T07:46:11;2.80;;;1.70;;
48963;SDS011;34776;48.180;16.420;2022-09-28T07:48:40;3.60;;;1.50;;
48963;SDS011;34776;48.180;16.420;2022-09-28T07:51:06;3.00;;;1.60;;
48963;SDS011;34776;48.180;16.420;2022-09-28T07:53:33;2.13;;;1.40;;
48963;SDS011;34776;48.180;16.420;2022-09-28T07:55:59;3.63;;;1.40;;
48963;SDS011;34776;48.180;16.420;2022-09-28T07:58:31;14.82;;;2.10;;
48963;SDS011;34776;48.180;16.420;2022-09-28T08:00:58;8.27;;;2.40;;
48963;SDS011;34776;48.180;16.420;2022-09-28T08:03:27;6.35;;;3.15;;
48963;SDS011;34776;48.180;16.420;2022-09-28T08:05:59;3.55;;;1.95;;
48963;SDS011;34776;48.180;16.420;2022-09-28T08:08:26;6.40;;;2.13;;
48963;SDS011;34776;48.180;16.420;2022-09-28T08:10:54;47.30;;;5.75;;
48963;SDS011;34776;48.180;16.420;2022-09-28T08:13:20;2.25;;;1.90;;
48963;SDS011;34776;48.180;16.420;2022-09-28T08:15:47;4.05;;;2.20;;
48963;SDS011;34776;48.180;16.420;2022-09-28T08:18:15;2.28;;;2.08;;
48963;SDS011;34776;48.180;16.420;2022-09-28T08:20:41;2.28;;;2.08;;
48963;SDS011;34776;48.180;16.420;2022-09-28T08:23:25;3.25;;;2.58;;
48963;SDS011;34776;48.180;16.420;2022-09-28T08:25:51;4.80;;;2.60;;
48963;SDS011;34776;48.180;16.420;2022-09-28T08:28:18;5.22;;;2.40;;
48963;SDS011;34776;48.180;16.420;2022-09-28T08:30:44;4.32;;;2.63;;
48963;SDS011;34776;48.180;16.420;2022-09-28T08:33:11;2.65;;;2.45;;
48963;SDS011;34776;48.180;16.420;2022-09-28T08:35:37;3.97;;;2.67;;
48963;SDS011;34776;48.180;16.420;2022-09-28T08:38:05;5.72;;;2.67;;
48963;SDS011;34776;48.180;16.420;2022-09-28T08:40:30;11.32;;;3.85;;
48963;SDS011;34776;48.180;16.420;2022-09-28T08:43:01;8.75;;;3.53;;
48963;SDS011;34776;48.180;16.420;2022-09-28T08:45:31;4.13;;;2.85;;
48963;SDS011;34776;48.180;16.420;2022-09-28T08:48:10;3.03;;;2.55;;
48963;SDS011;34776;48.180;16.420;2022-09-28T08:51:04;30.33;;;4.25;;
48963;SDS011;34776;48.180;16.420;2022-09-28T08:54:02;4.85;;;2.72;;
48963;SDS011;34776;48.180;16.420;2022-09-28T08:56:39;3.97;;;2.17;;
48963;SDS011;34776;48.180;16.420;2022-09-28T08:59:10;6.90;;;1.90;;
48963;SDS011;34776;48.180;16.420;2022-09-28T09:04:39;2.42;;;1.70;;
48963;SDS011;34776;48.180;16.420;2022-09-28T09:09:42;8.55;;;2.58;;
48963;SDS011;34776;48.180;16.420;2022-09-28T09:12:26;3.92;;;1.67;;
48963;SDS011;34776;48.180;16.420;2022-09-28T09:15:08;5.07;;;1.80;;
48963;SDS011;34776;48.180;16.420;2022-09-28T09:17:52;3.80;;;1.60;;
48963;SDS011;34776;48.180;16.420;2022-09-28T09:23:05;3.60;;;1.75;;
48963;SDS011;34776;48.180;16.420;2022-09-28T09:25:43;1.92;;;1.58;;
48963;SDS011;34776;48.180;16.420;2022-09-28T09:34:02;2.45;;;2.00;;
48963;SDS011;34776;48.180;16.420;2022-09-28T09:48:06;1.80;;;1.67;;
48963;SDS011;34776;48.180;16.420;2022-09-28T09:50:41;2.00;;;1.88;;
48963;SDS011;34776;48.180;16.420;2022-09-28T09:59:15;2.50;;;1.42;;
48963;SDS011;34776;48.180;16.420;2022-09-28T10:01:48;3.50;;;1.42;;
48963;SDS011;34776;48.180;16.420;2022-09-28T10:04:22;1.15;;;1.10;;
48963;SDS011;34776;48.180;16.420;2022-09-28T10:06:53;2.58;;;1.10;;
48963;SDS011;34776;48.180;16.420;2022-09-28T10:09:23;3.78;;;1.33;;
48963;SDS011;34776;48.180;16.420;2022-09-28T10:11:52;1.63;;;0.82;;
48963;SDS011;34776;48.180;16.420;2022-09-28T10:14:19;0.70;;;0.70;;
48963;SDS011;34776;48.180;16.420;2022-09-28T10:16:47;0.80;;;0.80;;
48963;SDS011;34776;48.180;16.420;2022-09-28T10:19:19;0.98;;;0.88;;
48963;SDS011;34776;48.180;16.420;2022-09-28T10:21:49;0.60;;;0.60;;
48963;SDS011;34776;48.180;16.420;2022-09-28T10:25:01;0.80;;;0.80;;
48963;SDS011;34776;48.180;16.420;2022-09-28T10:30:00;1.67;;;1.17;;
48963;SDS011;34776;48.180;16.420;2022-09-28T10:32:27;4.93;;;1.10;;
48963;SDS011;34776;48.180;16.420;2022-09-28T10:37:56;2.90;;;0.90;;
48963;SDS011;34776;48.180;16.420;2022-09-28T10:43:20;0.85;;;0.85;;
48963;SDS011;34776;48.180;16.420;2022-09-28T10:46:12;3.42;;;0.93;;
48963;SDS011;34776;48.180;16.420;2022-09-28T10:48:50;1.25;;;0.70;;
48963;SDS011;34776;48.180;16.420;2022-09-28T10:51:18;0.82;;;0.70;;
48963;SDS011;34776;48.180;16.420;2022-09-28T10:53:58;0.90;;;0.70;;
48963;SDS011;34776;48.180;16.420;2022-09-28T10:56:29;1.65;;;0.80;;
48963;SDS011;34776;48.180;16.420;2022-09-28T10:59:01;1.10;;;0.90;;
48963;SDS011;34776;48.180;16.420;2022-09-28T11:01:46;0.95;;;0.90;;
48963;SDS011;34776;48.180;16.420;2022-09-28T11:04:13;2.40;;;1.10;;
48963;SDS011;34776;48.180;16.420;2022-09-28T11:06:45;2.17;;;0.93;;
48963;SDS011;34776;48.180;16.420;2022-09-28T11:12:04;3.83;;;1.33;;
48963;SDS011;34776;48.180;16.420;2022-09-28T11:14:34;5.70;;;1.02;;
48963;SDS011;34776;48.180;16.420;2022-09-28T11:20:01;6.65;;;1.27;;
48963;SDS011;34776;48.180;16.420;2022-09-28T11:25:25;1.60;;;1.00;;
48963;SDS011;34776;48.180;16.420;2022-09-28T11:30:23;1.30;;;1.05;;
48963;SDS011;34776;48.180;16.420;2022-09-28T11:33:14;1.77;;;1.20;;
48963;SDS011;34776;48.180;16.420;2022-09-28T11:35:45;2.20;;;0.93;;
48963;SDS011;34776;48.180;16.420;2022-09-28T11:38:47;1.73;;;0.95;;
48963;SDS011;34776;48.180;16.420;2022-09-28T11:41:37;1.70;;;1.25;;
48963;SDS011;34776;48.180;16.420;2022-09-28T11:49:32;15.93;;;1.75;;
48963;SDS011;34776;48.180;16.420;2022-09-28T11:52:05;1.70;;;1.10;;
48963;SDS011;34776;48.180;16.420;2022-09-28T11:54:42;23.63;;;1.60;;
48963;SDS011;34776;48.180;16.420;2022-09-28T11:57:20;4.82;;;1.40;;
48963;SDS011;34776;48.180;16.420;2022-09-28T12:00:04;1.98;;;1.10;;
48963;SDS011;34776;48.180;16.420;2022-09-28T12:02:57;1.05;;;0.90;;
48963;SDS011;34776;48.180;16.420;2022-09-28T12:05:30;1.75;;;1.20;;
48963;SDS011;34776;48.180;16.420;2022-09-28T12:08:03;1.30;;;1.05;;
48963;SDS011;34776;48.180;16.420;2022-09-28T12:10:37;1.20;;;1.10;;
48963;SDS011;34776;48.180;16.420;2022-09-28T12:13:10;8.68;;;1.70;;
48963;SDS011;34776;48.180;16.420;2022-09-28T12:18:38;1.60;;;1.20;;
48963;SDS011;34776;48.180;16.420;2022-09-28T12:21:25;1.30;;;1.20;;
48963;SDS011;34776;48.180;16.420;2022-09-28T12:23:59;4.95;;;1.20;;
48963;SDS011;34776;48.180;16.420;2022-09-28T12:26:35;1.38;;;1.25;;
48963;SDS011;34776;48.180;16.420;2022-09-28T12:29:15;2.50;;;1.33;;
48963;SDS011;34776;48.180;16.420;2022-09-28T12:31:52;1.95;;;1.00;;
48963;SDS011;34776;48.180;16.420;2022-09-28T12:34:22;4.45;;;1.20;;
48963;SDS011;34776;48.180;16.420;2022-09-28T12:37:06;3.58;;;1.20;;
48963;SDS011;34776;48.180;16.420;2022-09-28T12:42:45;3.22;;;1.05;;
48963;SDS011;34776;48.180;16.420;2022-09-28T12:45:28;2.25;;;1.10;;
48963;SDS011;34776;48.180;16.420;2022-09-28T12:50:38;1.30;;;1.20;;
48963;SDS011;34776;48.180;16.420;2022-09-28T12:53:32;2.78;;;1.40;;
48963;SDS011;34776;48.180;16.420;2022-09-28T12:56:10;2.58;;;1.30;;
48963;SDS011;34776;48.180;16.420;2022-09-28T13:04:17;4.32;;;1.40;;
48963;SDS011;34776;48.180;16.420;2022-09-28T13:09:20;2.25;;;1.27;;
48963;SDS011;34776;48.180;16.420;2022-09-28T13:14:36;2.78;;;1.08;;
48963;SDS011;34776;48.180;16.420;2022-09-28T13:20:16;1.30;;;1.20;;
48963;SDS011;34776;48.180;16.420;2022-09-28T13:22:54;4.05;;;1.45;;
48963;SDS011;34776;48.180;16.420;2022-09-28T13:28:48;3.13;;;1.05;;
48963;SDS011;34776;48.180;16.420;2022-09-28T13:31:16;1.17;;;1.08;;
48963;SDS011;34776;48.180;16.420;2022-09-28T13:33:47;2.00;;;1.20;;
48963;SDS011;34776;48.180;16.420;2022-09-28T13:38:52;2.00;;;1.27;;
48963;SDS011;34776;48.180;16.420;2022-09-28T13:41:29;1.15;;;1.05;;
48963;SDS011;34776;48.180;16.420;2022-09-28T13:46:51;2.60;;;1.40;;
48963;SDS011;34776;48.180;16.420;2022-09-28T13:49:42;1.00;;;1.00;;
48963;SDS011;34776;48.180;16.420;2022-09-28T13:52:33;1.15;;;1.08;;
48963;SDS011;34776;48.180;16.420;2022-09-28T14:00:58;3.58;;;1.45;;
48963;SDS011;34776;48.180;16.420;2022-09-28T14:06:34;1.42;;;1.15;;
48963;SDS011;34776;48.180;16.420;2022-09-28T14:14:04;2.10;;;1.02;;
48963;SDS011;34776;48.180;16.420;2022-09-28T14:16:31;2.30;;;1.38;;
48963;SDS011;34776;48.180;16.420;2022-09-28T14:19:08;3.40;;;1.67;;
48963;SDS011;34776;48.180;16.420;2022-09-28T14:25:07;1.15;;;1.10;;
48963;SDS011;34776;48.180;16.420;2022-09-28T14:32:37;4.47;;;1.58;;
48963;SDS011;34776;48.180;16.420;2022-09-28T14:35:05;1.15;;;1.02;;
48963;SDS011;34776;48.180;16.420;2022-09-28T14:40:25;2.92;;;1.25;;
48963;SDS011;34776;48.180;16.420;2022-09-28T14:43:19;5.15;;;1.70;;
48963;SDS011;34776;48.180;16.420;2022-09-28T14:53:51;5.05;;;2.70;;
48963;SDS011;34776;48.180;16.420;2022-09-28T14:56:24;10.05;;;3.80;;
48963;SDS011;34776;48.180;16.420;2022-09-28T14:58:52;12.48;;;4.57;;
48963;SDS011;34776;48.180;16.420;2022-09-28T15:01:21;8.00;;;3.35;;
48963;SDS011;34776;48.180;16.420;2022-09-28T15:03:50;3.88;;;1.80;;
48963;SDS011;34776;48.180;16.420;2022-09-28T15:06:20;5.03;;;2.00;;
48963;SDS011;34776;48.180;16.420;2022-09-28T15:08:47;9.18;;;2.22;;
48963;SDS011;34776;48.180;16.420;2022-09-28T15:11:14;2.28;;;1.80;;
48963;SDS011;34776;48.180;16.420;2022-09-28T15:13:43;3.28;;;2.05;;
48963;SDS011;34776;48.180;16.420;2022-09-28T15:16:11;4.03;;;1.95;;
48963;SDS011;34776;48.180;16.420;2022-09-28T15:21:41;4.88;;;2.63;;
48963;SDS011;34776;48.180;16.420;2022-09-28T15:26:48;7.85;;;2.88;;
48963;SDS011;34776;48.180;16.420;2022-09-28T15:29:17;4.68;;;2.13;;
48963;SDS011;34776;48.180;16.420;2022-09-28T15:31:44;4.57;;;2.50;;
48963;SDS011;34776;48.180;16.420;2022-09-28T15:34:20;3.50;;;2.15;;
48963;SDS011;34776;48.180;16.420;2022-09-28T15:37:12;2.47;;;1.90;;
48963;SDS011;34776;48.180;16.420;2022-09-28T15:39:40;3.53;;;1.95;;
48963;SDS011;34776;48.180;16.420;2022-09-28T15:42:06;2.28;;;1.30;;
48963;SDS011;34776;48.180;16.420;2022-09-28T15:44:38;2.20;;;1.38;;
48963;SDS011;34776;48.180;16.420;2022-09-28T15:47:12;1.33;;;1.02;;
48963;SDS011;34776;48.180;16.420;2022-09-28T15:49:42;3.47;;;2.65;;
48963;SDS011;34776;48.180;16.420;2022-09-28T15:52:21;4.80;;;1.65;;
48963;SDS011;34776;48.180;16.420;2022-09-28T15:54:50;2.67;;;1.13;;
48963;SDS011;34776;48.180;16.420;2022-09-28T15:57:32;2.90;;;1.20;;
48963;SDS011;34776;48.180;16.420;2022-09-28T15:59:59;1.30;;;1.20;;
48963;SDS011;34776;48.180;16.420;2022-09-28T16:02:25;8.30;;;2.00;;
48963;SDS011;34776;48.180;16.420;2022-09-28T16:04:55;3.45;;;1.70;;
48963;SDS011;34776;48.180;16.420;2022-09-28T16:07:24;1.40;;;1.30;;
48963;SDS011;34776;48.180;16.420;2022-09-28T16:09:59;2.45;;;1.40;;
48963;SDS011;34776;48.180;16.420;2022-09-28T16:12:28;1.30;;;1.20;;
48963;SDS011;34776;48.180;16.420;2022-09-28T16:15:05;1.65;;;1.23;;
48963;SDS011;34776;48.180;16.420;2022-09-28T16:17:38;2.20;;;1.58;;
48963;SDS011;34776;48.180;16.420;2022-09-28T16:20:16;1.83;;;1.48;;
48963;SDS011;34776;48.180;16.420;2022-09-28T16:30:58;2.08;;;1.58;;
48963;SDS011;34776;48.180;16.420;2022-09-28T16:33:53;2.72;;;1.30;;
48963;SDS011;34776;48.180;16.420;2022-09-28T16:36:21;3.23;;;1.70;;
48963;SDS011;34776;48.180;16.420;2022-09-28T16:38:49;2.13;;;1.60;;
48963;SDS011;34776;48.180;16.420;2022-09-28T16:41:16;1.92;;;1.70;;
48963;SDS011;34776;48.180;16.420;2022-09-28T16:43:45;4.53;;;1.75;;
48963;SDS011;34776;48.180;16.420;2022-09-28T16:46:15;3.90;;;2.92;;
48963;SDS011;34776;48.180;16.420;2022-09-28T16:48:45;3.83;;;2.97;;
48963;SDS011;34776;48.180;16.420;2022-09-28T16:51:13;4.35;;;3.00;;
48963;SDS011;34776;48.180;16.420;2022-09-28T16:53:42;5.25;;;3.88;;
48963;SDS011;34776;48.180;16.420;2022-09-28T16:56:27;2.67;;;2.05;;
48963;SDS011;34776;48.180;16.420;2022-09-28T16:58:56;8.77;;;5.60;;
48963;SDS011;34776;48.180;16.420;2022-09-28T17:01:22;3.50;;;2.40;;
48963;SDS011;34776;48.180;16.420;2022-09-28T17:03:48;2.33;;;1.98;;
48963;SDS011;34776;48.180;16.420;2022-09-28T17:06:17;1.52;;;1.42;;
48963;SDS011;34776;48.180;16.420;2022-09-28T17:08:44;1.98;;;1.38;;
48963;SDS011;34776;48.180;16.420;2022-09-28T17:11:17;2.80;;;1.30;;
48963;SDS011;34776;48.180;16.420;2022-09-28T17:13:44;1.85;;;1.17;;
48963;SDS011;34776;48.180;16.420;2022-09-28T17:16:12;1.35;;;1.10;;
48963;SDS011;34776;48.180;16.420;2022-09-28T17:18:42;1.75;;;1.17;;
48963;SDS011;34776;48.180;16.420;2022-09-28T17:21:13;1.38;;;1.15;;
48963;SDS011;34776;48.180;16.420;2022-09-28T17:23:44;3.72;;;1.55;;
48963;SDS011;34776;48.180;16.420;2022-09-28T17:26:32;3.40;;;1.20;;
48963;SDS011;34776;48.180;16.420;2022-09-28T17:28:58;4.15;;;1.50;;
48963;SDS011;34776;48.180;16.420;2022-09-28T17:31:26;1.73;;;1.08;;
48963;SDS011;34776;48.180;16.420;2022-09-28T17:33:51;2.80;;;1.48;;
48963;SDS011;34776;48.180;16.420;2022-09-28T17:36:18;2.53;;;1.38;;
48963;SDS011;34776;48.180;16.420;2022-09-28T17:38:44;2.72;;;1.33;;
48963;SDS011;34776;48.180;16.420;2022-09-28T17:41:13;1.48;;;1.15;;
48963;SDS011;34776;48.180;16.420;2022-09-28T17:43:40;1.55;;;1.30;;
48963;SDS011;34776;48.180;16.420;2022-09-28T17:46:06;1.83;;;1.40;;
48963;SDS011;34776;48.180;16.420;2022-09-28T17:48:49;3.67;;;1.50;;